Sunday, June 26, 2016, 1:09 PM EDT

KFYJ, West Point, Middle Peninsula Regional Airport

Location: Shacklefords, VA, United States Lat: 37.521
Local Time: 1:09 PM EDT (17:09 GMT) Lon: -76.764
Time Zone: US/Eastern Elev: 22 ft

Show me the last for .
Show Decoded

2016-06-26 12:55 METAR KFYJ 261655Z AUTO 00000KT 10SM CLR 27/09 A3024 RMK AO2 T02660090 =
2016-06-26 12:35 METAR KFYJ 261635Z AUTO 07007KT 10SM CLR 27/11 A3024 RMK AO2 T02700109 =
2016-06-26 12:15 METAR KFYJ 261615Z AUTO 06005KT 10SM CLR 27/11 A3024 RMK AO2 T02660111 =
2016-06-26 11:55 METAR KFYJ 261555Z AUTO 04003KT 10SM CLR 26/12 A3024 RMK AO2 T02620116 =
2016-06-26 11:35 METAR KFYJ 261535Z AUTO 04006KT 10SM CLR 26/14 A3024 RMK AO2 T02570137 =
2016-06-26 11:15 METAR KFYJ 261515Z AUTO 00000KT 10SM CLR 25/14 A3024 RMK AO2 T02510140 =
2016-06-26 10:55 METAR KFYJ 261455Z AUTO 11004KT 10SM CLR 25/15 A3024 RMK AO2 T02500145 =
2016-06-26 10:35 METAR KFYJ 261435Z AUTO 07003KT 10SM CLR 25/15 A3024 RMK AO2 T02460151 =
2016-06-26 10:15 METAR KFYJ 261415Z AUTO 07003KT 10SM CLR 24/16 A3024 RMK AO2 T02400158 =
2016-06-26 09:55 METAR KFYJ 261355Z AUTO 09004KT 10SM CLR 24/16 A3024 RMK AO2 T02350163 =
2016-06-26 09:35 METAR KFYJ 261335Z AUTO 09005KT 10SM CLR 23/17 A3024 RMK AO2 T02330168 =
2016-06-26 09:15 METAR KFYJ 261315Z AUTO 07005KT 10SM SCT015 23/18 A3023 RMK AO2 T02270182 =
2016-06-26 08:55 METAR KFYJ 261255Z AUTO 04003KT 10SM CLR 22/18 A3023 RMK AO2 T02190183 =
2016-06-26 08:35 METAR KFYJ 261235Z AUTO 01003KT 10SM CLR 21/19 A3023 RMK AO2 T02110188 =
2016-06-26 08:15 METAR KFYJ 261215Z AUTO 00000KT 10SM CLR 20/19 A3023 RMK AO2 T02020194 =
2016-06-26 07:55 METAR KFYJ 261155Z AUTO 00000KT 10SM CLR 19/19 A3023 RMK AO2 T01940190 10194
                 20145 =
2016-06-26 07:35 METAR KFYJ 261135Z AUTO 00000KT 7SM CLR 19/18 A3024 RMK AO2 T01860182 =
2016-06-26 07:15 METAR KFYJ 261115Z AUTO 00000KT 7SM CLR 18/18 A3024 RMK AO2 T01780175 =
2016-06-26 06:55 METAR KFYJ 261055Z AUTO 00000KT 4SM SCT002 17/16 A3024 RMK AO2 T01660163 =
2016-06-26 06:35 METAR KFYJ 261035Z AUTO 00000KT 2 1/2SM OVC002 16/16 A3025 RMK AO2 T01600156 =
2016-06-26 06:15 METAR KFYJ 261015Z AUTO 00000KT 7SM SCT002 15/15 A3025 RMK AO2 T01530150 =
2016-06-26 05:55 METAR KFYJ 260955Z AUTO 00000KT 4SM CLR 16/15 A3025 RMK AO2 T01550151 =
2016-06-26 05:35 METAR KFYJ 260935Z AUTO 00000KT 7SM CLR 15/15 A3024 RMK AO2 T01530150 =
2016-06-26 05:15 METAR KFYJ 260915Z AUTO 00000KT 2SM CLR 16/15 A3024 RMK AO2 VIS 1 1/4V5
                 T01550151 =
2016-06-26 04:55 METAR KFYJ 260855Z AUTO 00000KT 5SM CLR 15/15 A3023 RMK AO2 T01520148 =
2016-06-26 04:35 METAR KFYJ 260835Z AUTO 00000KT 7SM CLR 15/15 A3023 RMK AO2 T01530149 =
2016-06-26 04:15 METAR KFYJ 260815Z AUTO 00000KT 10SM CLR 15/15 A3023 RMK AO2 T01500146 =
2016-06-26 03:55 METAR KFYJ 260755Z AUTO 00000KT 10SM CLR 15/14 A3022 RMK AO2 T01480143 =
2016-06-26 03:35 METAR KFYJ 260735Z AUTO 00000KT 7SM CLR 16/16 A3022 RMK AO2 T01590155 =
2016-06-26 03:15 METAR KFYJ 260715Z AUTO 00000KT 10SM CLR 16/15 A3021 RMK AO2 T01550151 =
2016-06-26 02:55 METAR KFYJ 260655Z AUTO 00000KT 7SM CLR 15/15 A3020 RMK AO2 T01500145 =
2016-06-26 02:35 METAR KFYJ 260635Z AUTO 00000KT 7SM CLR 16/15 A3020 RMK AO2 T01570152 =
2016-06-26 02:15 METAR KFYJ 260615Z AUTO 00000KT 7SM CLR 17/16 A3020 RMK AO2 T01650160 =
2016-06-26 01:55 METAR KFYJ 260555Z AUTO 00000KT 10SM CLR 17/16 A3020 RMK AO2 T01670161 10245
                 20167 402770167 =
2016-06-26 01:35 METAR KFYJ 260535Z AUTO 00000KT 7SM CLR 17/16 A3020 RMK AO2 T01690161 =
2016-06-26 01:15 METAR KFYJ 260515Z AUTO 00000KT 10SM CLR 18/17 A3020 RMK AO2 T01750167 =
2016-06-26 00:55 METAR KFYJ 260455Z AUTO 00000KT 10SM CLR 17/16 A3021 RMK AO2 T01700161 =
2016-06-26 00:35 METAR KFYJ 260435Z AUTO 00000KT 10SM CLR 18/17 A3021 RMK AO2 T01830172 =
2016-06-26 00:15 METAR KFYJ 260415Z AUTO 00000KT 10SM CLR 19/18 A3021 RMK AO2 T01860175 =
2016-06-25 23:55 METAR KFYJ 260355Z AUTO 00000KT 10SM CLR 18/17 A3021 RMK AO2 T01830170 =
2016-06-25 23:35 METAR KFYJ 260335Z AUTO 00000KT 10SM CLR 19/18 A3022 RMK AO2 T01930178 =
2016-06-25 23:15 METAR KFYJ 260315Z AUTO 00000KT 10SM CLR 19/18 A3022 RMK AO2 T01930180 =
2016-06-25 22:55 METAR KFYJ 260255Z AUTO 00000KT 10SM CLR 20/18 A3022 RMK AO2 T01950180 =
2016-06-25 22:35 METAR KFYJ 260235Z AUTO 07003KT 10SM CLR 20/18 A3022 RMK AO2 T01970182 =
2016-06-25 22:15 METAR KFYJ 260215Z AUTO 00000KT 10SM CLR 20/19 A3022 RMK AO2 T02030186 =
2016-06-25 21:55 METAR KFYJ 260155Z AUTO 00000KT 10SM CLR 21/19 A3021 RMK AO2 T02060189 =
2016-06-25 21:35 METAR KFYJ 260135Z AUTO 00000KT 10SM CLR 21/19 A3021 RMK AO2 T02110190 =
2016-06-25 21:15 METAR KFYJ 260115Z AUTO 07003KT 10SM CLR 21/19 A3019 RMK AO2 T02120191 =
2016-06-25 20:55 METAR KFYJ 260055Z AUTO 00000KT 10SM CLR 22/19 A3019 RMK AO2 T02160191 =
2016-06-25 20:35 METAR KFYJ 260035Z AUTO 00000KT 10SM CLR 23/19 A3019 RMK AO2 T02290187 =
2016-06-25 20:15 METAR KFYJ 260015Z AUTO 00000KT 10SM CLR 24/19 A3019 RMK AO2 T02360188 =
2016-06-25 19:55 METAR KFYJ 252355Z AUTO 08003KT 10SM CLR 25/19 A3019 RMK AO2 T02450187 10277
                 20245 =
2016-06-25 19:35 METAR KFYJ 252335Z AUTO 00000KT 10SM CLR 25/18 A3019 RMK AO2 T02530177 =
2016-06-25 19:15 METAR KFYJ 252315Z AUTO 05003KT 10SM CLR 26/18 A3018 RMK AO2 T02590176 =
2016-06-25 18:55 METAR KFYJ 252255Z AUTO 05003KT 10SM CLR 25/18 A3018 RMK AO2 T02530177 =
2016-06-25 18:35 METAR KFYJ 252235Z AUTO 06005KT 10SM SCT039 27/17 A3017 RMK AO2 T02680171 =
2016-06-25 18:15 METAR KFYJ 252215Z AUTO 04004KT 10SM BKN039 27/17 A3016 RMK AO2 T02710169 =
2016-06-25 17:55 METAR KFYJ 252155Z AUTO 07005KT 10SM SCT039 27/17 A3016 RMK AO2 T02650172 =
2016-06-25 17:35 METAR KFYJ 252135Z AUTO 08004KT 10SM SCT039 27/16 A3016 RMK AO2 T02710163 =
2016-06-25 17:15 METAR KFYJ 252115Z AUTO 08005KT 10SM BKN039 27/17 A3017 RMK AO2 T02730169 =
2016-06-25 16:55 METAR KFYJ 252055Z AUTO 08007KT 10SM SCT039 SCT046 28/17 A3017 RMK AO2 T02750169
                 =
2016-06-25 16:35 METAR KFYJ 252035Z AUTO 07009KT 10SM SCT039 SCT046 28/17 A3018 RMK AO2 T02760171
                 =
2016-06-25 16:15 METAR KFYJ 252015Z AUTO 07007KT 10SM SCT040 28/17 A3018 RMK AO2 T02760168 =
2016-06-25 15:55 METAR KFYJ 251955Z AUTO 06009G14KT 10SM SCT038 27/17 A3018 RMK AO2 T02740167 =
2016-06-25 15:35 METAR KFYJ 251935Z AUTO 06007KT 10SM SCT038 27/17 A3018 RMK AO2 T02690166 =
2016-06-25 15:15 METAR KFYJ 251915Z AUTO 08009KT 10SM SCT038 27/17 A3018 RMK AO2 T02730170 =
2016-06-25 14:55 METAR KFYJ 251855Z AUTO 09008KT 10SM CLR 27/17 A3017 RMK AO2 T02720167 =
2016-06-25 14:35 METAR KFYJ 251835Z AUTO 06007KT 10SM SCT036 27/17 A3017 RMK AO2 T02690173 =
2016-06-25 14:15 METAR KFYJ 251815Z AUTO 10007KT 10SM SCT030 SCT037 SCT045 26/18 A3017 RMK AO2
                 T02620179 =
2016-06-25 13:55 METAR KFYJ 251755Z AUTO 06006KT 10SM SCT029 SCT037 SCT045 26/18 A3017 RMK AO2
                 T02550179 10264 20220 =
2016-06-25 13:35 METAR KFYJ 251735Z AUTO 00000KT 10SM SCT022 BKN033 26/19 A3017 RMK AO2 T02570189
                 =
2016-06-25 13:15 METAR KFYJ 251715Z AUTO 04005KT 10SM SCT022 OVC031 25/19 A3017 RMK AO2 T02510186
                 =

Support USWX by starting your Amazon purchase here.